createdAt,value
2023-04-18T00:00:23.794Z,37.91
2023-04-18T00:01:23.819Z,37.91
2023-04-18T00:02:23.970Z,37.89
2023-04-18T00:03:23.982Z,37.89
2023-04-18T00:04:24.270Z,37.90
2023-04-18T00:05:23.842Z,37.87
2023-04-18T00:06:23.850Z,37.90
2023-04-18T00:07:23.850Z,37.90
2023-04-18T00:08:23.855Z,37.90
2023-04-18T00:09:23.879Z,37.88
2023-04-18T00:10:23.874Z,37.87
2023-04-18T00:11:23.876Z,37.91
2023-04-18T00:12:23.877Z,37.86
2023-04-18T00:13:23.892Z,37.87
2023-04-18T00:14:23.904Z,37.87
2023-04-18T00:15:23.926Z,37.86
2023-04-18T00:16:23.947Z,37.88
2023-04-18T00:17:23.994Z,37.86
2023-04-18T00:18:23.960Z,37.84
2023-04-18T00:19:23.976Z,37.84
2023-04-18T00:20:23.981Z,37.86
2023-04-18T00:21:23.982Z,37.83
2023-04-18T00:22:23.993Z,37.83
2023-04-18T00:23:24.001Z,37.83
2023-04-18T00:24:24.017Z,37.78
2023-04-18T00:25:24.032Z,37.86
2023-04-18T00:26:24.034Z,37.82
2023-04-18T00:27:24.043Z,37.83
2023-04-18T00:28:24.062Z,37.82
2023-04-18T00:29:24.069Z,37.79
2023-04-18T00:30:24.080Z,37.79
2023-04-18T00:31:24.159Z,37.84
2023-04-18T00:32:24.120Z,37.82
2023-04-18T00:33:24.107Z,37.85
2023-04-18T00:34:24.111Z,37.81
2023-04-18T00:35:24.124Z,37.81
2023-04-18T00:36:24.134Z,37.74
2023-04-18T00:37:24.140Z,37.81
2023-04-18T00:38:24.153Z,37.75
2023-04-18T00:39:24.153Z,37.81
2023-04-18T00:40:24.173Z,37.78
2023-04-18T00:41:24.177Z,37.81
2023-04-18T00:42:24.188Z,37.78
2023-04-18T00:43:24.204Z,37.78
2023-04-18T00:44:24.214Z,37.75
2023-04-18T00:45:24.226Z,37.75
2023-04-18T00:46:24.240Z,37.78
2023-04-18T00:47:24.275Z,37.77
2023-04-18T00:48:24.254Z,37.75
2023-04-18T00:49:24.266Z,37.78
2023-04-18T00:50:24.278Z,37.74
2023-04-18T00:51:24.284Z,37.74
2023-04-18T00:52:24.304Z,37.72
2023-04-18T00:53:24.317Z,37.70
2023-04-18T00:54:24.328Z,37.75
2023-04-18T00:55:24.359Z,37.72
2023-04-18T00:56:24.349Z,37.73
2023-04-18T00:57:24.359Z,37.73
2023-04-18T00:58:24.377Z,37.75
2023-04-18T00:59:24.392Z,37.75
2023-04-18T01:00:24.436Z,37.74
2023-04-18T01:01:24.432Z,37.78
2023-04-18T01:02:24.502Z,37.68
2023-04-18T01:03:24.580Z,37.75
2023-04-18T01:04:24.484Z,37.72
2023-04-18T01:05:24.603Z,37.74
2023-04-18T01:06:24.464Z,37.71
2023-04-18T01:07:24.475Z,37.70
2023-04-18T01:08:24.484Z,37.72
2023-04-18T01:09:24.499Z,37.71
2023-04-18T01:10:24.502Z,37.69
2023-04-18T01:11:24.521Z,37.64
2023-04-18T01:12:24.533Z,37.68
2023-04-18T01:13:24.547Z,37.65
2023-04-18T01:14:24.554Z,37.66
2023-04-18T01:15:24.560Z,37.68
2023-04-18T01:16:24.594Z,37.66
2023-04-18T01:17:24.593Z,37.66
2023-04-18T01:18:24.605Z,37.64
2023-04-18T01:19:24.599Z,37.61
2023-04-18T01:20:24.605Z,37.65
2023-04-18T01:21:24.616Z,37.62
2023-04-18T01:22:24.619Z,37.63
2023-04-18T01:23:24.627Z,37.64
2023-04-18T01:24:24.703Z,37.62
2023-04-18T01:25:24.652Z,37.61
2023-04-18T01:26:24.657Z,37.65
2023-04-18T01:27:24.663Z,37.59
2023-04-18T01:28:24.724Z,37.64
2023-04-18T01:29:24.693Z,37.58
2023-04-18T01:30:24.696Z,37.57
2023-04-18T01:31:24.772Z,37.62
2023-04-18T01:32:24.754Z,37.56
2023-04-18T01:33:24.730Z,37.59
2023-04-18T01:34:24.746Z,37.55
2023-04-18T01:35:24.761Z,37.57
2023-04-18T01:36:24.754Z,37.56
2023-04-18T01:37:24.764Z,37.54
2023-04-18T01:38:24.768Z,37.50
2023-04-18T01:39:24.775Z,37.52
2023-04-18T01:40:24.781Z,37.52
2023-04-18T01:41:24.787Z,37.48
2023-04-18T01:42:24.794Z,37.49
2023-04-18T01:43:24.801Z,37.52
2023-04-18T01:44:24.799Z,37.53
2023-04-18T01:45:24.812Z,37.45
2023-04-18T01:46:24.825Z,37.48
2023-04-18T01:47:24.867Z,37.46
2023-04-18T01:48:24.804Z,37.45
2023-04-18T01:49:24.813Z,37.42
2023-04-18T01:50:24.813Z,37.45
2023-04-18T01:51:24.813Z,37.42
2023-04-18T01:52:24.808Z,37.44
2023-04-18T01:53:25.005Z,37.41
2023-04-18T01:54:24.818Z,37.39
2023-04-18T01:55:24.813Z,37.41
2023-04-18T01:56:24.821Z,37.39
2023-04-18T01:57:24.811Z,37.42
2023-04-18T01:58:24.812Z,37.39
2023-04-18T01:59:24.826Z,37.35
2023-04-18T02:00:24.853Z,37.39
2023-04-18T02:01:24.945Z,37.38
2023-04-18T02:02:24.949Z,37.35
2023-04-18T02:03:24.928Z,37.34
2023-04-18T02:04:24.822Z,37.34
2023-04-18T02:05:24.821Z,37.35
2023-04-18T02:06:24.816Z,37.35
2023-04-18T02:07:24.812Z,37.27
2023-04-18T02:08:24.815Z,37.30
2023-04-18T02:09:24.844Z,37.30
2023-04-18T02:10:24.813Z,37.27
2023-04-18T02:11:24.831Z,37.28
2023-04-18T02:12:24.816Z,37.26
2023-04-18T02:13:24.820Z,37.25
2023-04-18T02:14:24.824Z,37.26
2023-04-18T02:15:24.821Z,37.26
2023-04-18T02:16:24.979Z,37.24
2023-04-18T02:17:24.864Z,37.24
2023-04-18T02:18:24.866Z,37.21
2023-04-18T02:19:24.831Z,37.22
2023-04-18T02:20:24.829Z,37.24
2023-04-18T02:21:24.829Z,37.24
2023-04-18T02:22:24.828Z,37.21
2023-04-18T02:23:24.831Z,37.22
2023-04-18T02:24:24.823Z,37.20
2023-04-18T02:25:24.823Z,37.20
2023-04-18T02:26:24.842Z,37.22
2023-04-18T02:27:24.835Z,37.19
2023-04-18T02:28:24.825Z,37.19
2023-04-18T02:29:24.832Z,37.17
2023-04-18T02:30:24.823Z,37.18
2023-04-18T02:31:24.916Z,37.17
2023-04-18T02:32:24.902Z,37.24
2023-04-18T02:33:24.823Z,37.15
2023-04-18T02:34:24.974Z,37.17
2023-04-18T02:35:24.833Z,37.15
2023-04-18T02:36:24.826Z,37.14
2023-04-18T02:37:24.838Z,37.14
2023-04-18T02:38:24.836Z,37.12
2023-04-18T02:39:24.843Z,37.11
2023-04-18T02:40:24.860Z,37.09
2023-04-18T02:41:24.848Z,37.09
2023-04-18T02:42:24.847Z,37.13
2023-04-18T02:43:24.854Z,37.12
2023-04-18T02:44:24.842Z,37.12
2023-04-18T02:45:24.832Z,37.08
2023-04-18T02:46:24.977Z,37.08
2023-04-18T02:47:24.852Z,37.11
2023-04-18T02:48:24.918Z,37.12
2023-04-18T02:49:24.847Z,37.03
2023-04-18T02:50:24.939Z,37.07
2023-04-18T02:51:24.841Z,37.11
2023-04-18T02:52:24.850Z,37.08
2023-04-18T02:53:24.857Z,37.07
2023-04-18T02:54:24.931Z,37.05
2023-04-18T02:55:24.870Z,37.06
2023-04-18T02:56:24.874Z,37.07
2023-04-18T02:57:24.869Z,37.01
2023-04-18T02:58:24.900Z,37.03
2023-04-18T02:59:24.924Z,37.01
2023-04-18T03:00:24.901Z,37.02
2023-04-18T03:01:24.970Z,37.02
2023-04-18T03:02:25.139Z,37.07
2023-04-18T03:03:25.068Z,36.99
2023-04-18T03:04:25.007Z,37.01
2023-04-18T03:05:24.921Z,37.06
2023-04-18T03:06:24.904Z,37.03
2023-04-18T03:07:24.913Z,37.03
2023-04-18T03:08:24.921Z,37.02
2023-04-18T03:09:24.929Z,37.00
2023-04-18T03:10:24.885Z,37.00
2023-04-18T03:11:24.924Z,36.98
2023-04-18T03:12:24.929Z,36.96
2023-04-18T03:13:24.974Z,37.02
2023-04-18T03:14:24.962Z,36.95
2023-04-18T03:15:24.906Z,37.00
2023-04-18T03:16:25.020Z,37.01
2023-04-18T03:17:24.962Z,36.96
2023-04-18T03:18:25.004Z,36.98
2023-04-18T03:19:24.968Z,37.02
2023-04-18T03:20:24.897Z,36.96
2023-04-18T03:21:24.867Z,36.97
2023-04-18T03:22:24.878Z,37.00
2023-04-18T03:23:24.865Z,36.91
2023-04-18T03:24:24.873Z,36.96
2023-04-18T03:25:24.852Z,36.89
2023-04-18T03:26:24.861Z,36.93
2023-04-18T03:27:24.849Z,36.93
2023-04-18T03:28:24.850Z,36.93
2023-04-18T03:29:24.847Z,36.92
2023-04-18T03:30:24.837Z,36.93
2023-04-18T03:31:24.878Z,36.91
2023-04-18T03:32:24.886Z,36.90
2023-04-18T03:33:24.834Z,36.95
2023-04-18T03:34:24.845Z,36.87
2023-04-18T03:35:24.889Z,36.91
2023-04-18T03:36:24.833Z,36.92
2023-04-18T03:37:24.840Z,36.91
2023-04-18T03:38:24.829Z,36.89
2023-04-18T03:39:24.830Z,36.88
2023-04-18T03:40:24.818Z,36.88
2023-04-18T03:41:24.818Z,36.89
2023-04-18T03:42:24.810Z,36.88
2023-04-18T03:43:24.819Z,36.83
2023-04-18T03:44:24.827Z,36.90
2023-04-18T03:45:24.821Z,36.91
2023-04-18T03:46:24.870Z,36.84
2023-04-18T03:47:24.849Z,36.84
2023-04-18T03:48:24.816Z,36.88
2023-04-18T03:49:24.812Z,36.84
2023-04-18T03:50:24.805Z,36.89
2023-04-18T03:51:24.819Z,36.87
2023-04-18T03:52:24.896Z,36.86
2023-04-18T03:53:24.815Z,36.82
2023-04-18T03:54:24.828Z,36.87
2023-04-18T03:55:24.821Z,36.79
2023-04-18T03:56:24.814Z,36.85
2023-04-18T03:57:24.827Z,36.83
2023-04-18T03:58:24.824Z,36.82
2023-04-18T03:59:24.821Z,36.79
2023-04-18T04:00:24.814Z,36.83
2023-04-18T04:01:24.810Z,36.79
2023-04-18T04:02:24.890Z,36.82
2023-04-18T04:03:24.827Z,36.75
2023-04-18T04:04:24.852Z,36.79
2023-04-18T04:05:24.795Z,36.86
2023-04-18T04:06:24.778Z,36.81
2023-04-18T04:07:24.797Z,36.76
2023-04-18T04:08:26.434Z,36.80
2023-04-18T04:09:24.742Z,36.77
2023-04-18T04:10:24.787Z,36.80
2023-04-18T04:11:24.691Z,36.79
2023-04-18T04:12:24.674Z,36.77
2023-04-18T04:13:24.646Z,36.74
2023-04-18T04:14:24.621Z,36.77
2023-04-18T04:15:24.668Z,36.76
2023-04-18T04:16:24.601Z,36.73
2023-04-18T04:17:24.586Z,36.74
2023-04-18T04:18:24.524Z,36.78
2023-04-18T04:19:24.527Z,36.77
2023-04-18T04:20:24.489Z,36.76
2023-04-18T04:21:24.464Z,36.76
2023-04-18T04:22:24.464Z,36.72
2023-04-18T04:23:24.400Z,36.77
2023-04-18T04:24:24.406Z,36.69
2023-04-18T04:25:24.481Z,36.73
2023-04-18T04:26:24.347Z,36.74
2023-04-18T04:27:24.320Z,36.72
2023-04-18T04:28:24.305Z,36.66
2023-04-18T04:29:24.288Z,36.73
2023-04-18T04:30:24.262Z,36.73
2023-04-18T04:31:24.276Z,36.68
2023-04-18T04:32:24.237Z,36.72
2023-04-18T04:33:24.192Z,36.69
2023-04-18T04:34:24.164Z,36.70
2023-04-18T04:35:24.163Z,36.69
2023-04-18T04:36:24.121Z,36.72
2023-04-18T04:37:24.103Z,36.66
2023-04-18T04:38:24.073Z,36.69
2023-04-18T04:39:24.049Z,36.70
2023-04-18T04:40:24.043Z,36.68
2023-04-18T04:41:24.010Z,36.65
2023-04-18T04:42:23.983Z,36.69
2023-04-18T04:43:23.962Z,36.60
2023-04-18T04:44:23.943Z,36.65
2023-04-18T04:45:23.929Z,36.62
2023-04-18T04:46:23.979Z,36.65
2023-04-18T04:47:23.875Z,36.64
2023-04-18T04:48:23.842Z,36.68
2023-04-18T04:49:23.826Z,36.69
2023-04-18T04:50:23.810Z,36.64
2023-04-18T04:51:23.787Z,36.64
2023-04-18T04:52:23.762Z,36.61
2023-04-18T04:53:23.720Z,36.66
2023-04-18T04:54:23.716Z,36.60
2023-04-18T04:55:23.684Z,36.63
2023-04-18T04:56:23.660Z,36.60
2023-04-18T04:57:23.641Z,36.59
2023-04-18T04:58:23.619Z,36.62
2023-04-18T04:59:23.594Z,36.63
2023-04-18T05:00:23.572Z,36.58
2023-04-18T05:01:23.572Z,36.60
2023-04-18T05:02:23.676Z,36.60
2023-04-18T05:03:23.600Z,36.59
2023-04-18T05:04:23.609Z,36.59
2023-04-18T05:05:23.443Z,36.55
2023-04-18T05:06:23.416Z,36.56
2023-04-18T05:07:23.394Z,36.59
2023-04-18T05:08:23.358Z,36.63
2023-04-18T05:09:23.341Z,36.59
2023-04-18T05:10:23.392Z,36.56
2023-04-18T05:11:23.277Z,36.55
2023-04-18T05:12:23.247Z,36.55
2023-04-18T05:13:23.219Z,36.60
2023-04-18T05:14:23.186Z,36.54
2023-04-18T05:15:23.161Z,36.50
2023-04-18T05:16:23.178Z,36.54
2023-04-18T05:17:23.126Z,36.49
2023-04-18T05:18:23.075Z,36.51
2023-04-18T05:19:23.036Z,36.47
2023-04-18T05:20:23.016Z,36.54
2023-04-18T05:21:22.988Z,36.51
2023-04-18T05:22:22.948Z,36.55
2023-04-18T05:23:22.934Z,36.65
2023-04-18T05:24:23.316Z,36.75
2023-04-18T05:25:23.872Z,36.82
2023-04-18T05:26:22.837Z,37.20
2023-04-18T05:27:22.788Z,37.75
2023-04-18T05:28:22.768Z,37.81
2023-04-18T05:29:22.716Z,38.10
2023-04-18T05:30:22.701Z,38.21
2023-04-18T05:31:22.706Z,38.26
2023-04-18T05:32:22.707Z,39.50
2023-04-18T05:33:22.702Z,38.90
2023-04-18T05:34:22.730Z,39.33
2023-04-18T05:35:22.762Z,39.08
2023-04-18T05:36:22.782Z,39.15
2023-04-18T05:37:22.801Z,39.43
2023-04-18T05:38:22.810Z,39.43
2023-04-18T05:39:22.817Z,39.41
2023-04-18T05:40:22.832Z,39.23
2023-04-18T05:41:22.830Z,39.35
2023-04-18T05:42:22.844Z,39.42
2023-04-18T05:43:22.822Z,39.44
2023-04-18T05:44:22.810Z,40.02
2023-04-18T05:45:22.792Z,39.71
2023-04-18T05:46:22.811Z,39.90
2023-04-18T05:47:22.838Z,39.70
2023-04-18T05:48:22.764Z,39.85
2023-04-18T05:49:22.778Z,40.19
2023-04-18T05:50:22.721Z,40.43
2023-04-18T05:51:23.681Z,40.59
2023-04-18T05:52:22.635Z,40.69
2023-04-18T05:53:22.614Z,40.46
2023-04-18T05:54:22.549Z,40.48
2023-04-18T05:55:23.228Z,40.39
2023-04-18T05:56:22.492Z,40.51
2023-04-18T05:57:22.429Z,40.60
2023-04-18T05:58:22.381Z,40.71
2023-04-18T05:59:22.336Z,41.25
2023-04-18T06:00:22.324Z,41.12
2023-04-18T06:01:22.245Z,41.30
2023-04-18T06:02:22.361Z,41.75
2023-04-18T06:03:22.386Z,41.58
2023-04-18T06:04:22.227Z,41.64
2023-04-18T06:05:22.176Z,41.62
2023-04-18T06:06:22.013Z,41.72
2023-04-18T06:07:21.952Z,41.60
2023-04-18T06:08:21.962Z,41.69
2023-04-18T06:09:21.980Z,41.75
2023-04-18T06:10:22.005Z,41.76
2023-04-18T06:11:22.016Z,42.16
2023-04-18T06:12:22.049Z,42.18
2023-04-18T06:13:22.056Z,42.23
2023-04-18T06:14:22.075Z,42.27
2023-04-18T06:15:23.830Z,42.18
2023-04-18T06:16:22.122Z,42.29
2023-04-18T06:17:22.149Z,42.36
2023-04-18T06:18:22.121Z,42.80
2023-04-18T06:19:22.135Z,42.86
2023-04-18T06:20:22.154Z,42.44
2023-04-18T06:21:22.247Z,42.40
2023-04-18T06:22:22.211Z,42.23
2023-04-18T06:23:22.198Z,42.21
2023-04-18T06:24:22.205Z,42.25
2023-04-18T06:25:22.816Z,42.21
2023-04-18T06:26:22.190Z,42.14
2023-04-18T06:27:31.203Z,42.18
2023-04-18T06:28:23.132Z,42.40
2023-04-18T06:29:23.077Z,42.37
2023-04-18T06:30:22.245Z,42.45
2023-04-18T06:31:21.992Z,42.45
2023-04-18T06:32:22.839Z,42.49
2023-04-18T06:33:21.896Z,42.56
2023-04-18T06:34:21.855Z,42.59
2023-04-18T06:35:21.808Z,42.66
2023-04-18T06:36:21.767Z,42.77
2023-04-18T06:37:21.709Z,42.77
2023-04-18T06:38:21.671Z,42.76
2023-04-18T06:39:21.626Z,42.95
2023-04-18T06:40:21.576Z,42.79
2023-04-18T06:41:21.524Z,42.91
2023-04-18T06:42:22.373Z,42.87
2023-04-18T06:43:21.444Z,42.91
2023-04-18T06:44:21.393Z,42.93
2023-04-18T06:45:21.353Z,42.97
2023-04-18T06:46:21.421Z,42.96
2023-04-18T06:47:21.279Z,42.95
2023-04-18T06:48:21.232Z,42.93
2023-04-18T06:49:26.255Z,43.00
2023-04-18T06:50:22.151Z,43.06
2023-04-18T06:51:21.066Z,42.97
2023-04-18T06:52:21.036Z,42.97
2023-04-18T06:53:20.981Z,43.03
2023-04-18T06:54:20.938Z,42.93
2023-04-18T06:55:20.895Z,42.95
2023-04-18T06:56:20.855Z,42.88
2023-04-18T06:57:20.806Z,42.86
2023-04-18T06:58:20.759Z,42.80
2023-04-18T06:59:20.697Z,42.87
2023-04-18T07:00:20.667Z,42.88
2023-04-18T07:01:20.648Z,42.87
2023-04-18T07:02:20.665Z,42.78
2023-04-18T07:03:20.771Z,42.86
2023-04-18T07:04:20.616Z,42.80
2023-04-18T07:05:20.532Z,42.76
2023-04-18T07:06:20.509Z,42.74
2023-04-18T07:07:20.505Z,42.68
2023-04-18T07:08:20.514Z,42.75
2023-04-18T07:09:20.506Z,42.71
2023-04-18T07:10:20.578Z,42.68
2023-04-18T07:11:20.514Z,42.63
2023-04-18T07:12:20.516Z,42.50
2023-04-18T07:13:20.532Z,42.57
2023-04-18T07:14:20.520Z,42.50
2023-04-18T07:15:20.533Z,42.53
2023-04-18T07:16:20.613Z,42.52
2023-04-18T07:17:21.430Z,42.43
2023-04-18T07:18:30.180Z,42.44
2023-04-18T07:19:21.483Z,42.38
2023-04-18T07:20:20.446Z,42.59
2023-04-18T07:21:20.417Z,42.61
2023-04-18T07:22:20.372Z,42.70
2023-04-18T07:23:21.252Z,42.89
2023-04-18T07:24:20.257Z,42.98
2023-04-18T07:25:20.218Z,43.06
2023-04-18T07:26:20.166Z,43.11
2023-04-18T07:27:20.115Z,43.03
2023-04-18T07:28:20.060Z,43.17
2023-04-18T07:29:20.025Z,43.13
2023-04-18T07:30:20.765Z,43.18
2023-04-18T07:31:19.944Z,43.21
2023-04-18T07:32:19.892Z,43.35
2023-04-18T07:33:19.816Z,43.31
2023-04-18T07:34:19.778Z,43.43
2023-04-18T07:35:19.822Z,43.65
2023-04-18T07:36:19.654Z,43.51
2023-04-18T07:37:19.614Z,43.58
2023-04-18T07:38:19.641Z,43.52
2023-04-18T07:39:19.658Z,43.60
2023-04-18T07:40:20.332Z,43.60
2023-04-18T07:41:20.808Z,43.84
2023-04-18T07:42:19.828Z,43.80
2023-04-18T07:43:20.791Z,44.00
2023-04-18T07:44:20.335Z,44.05
2023-04-18T07:45:19.819Z,44.05
2023-04-18T07:46:19.872Z,44.18
2023-04-18T07:47:22.427Z,44.35
2023-04-18T07:48:19.783Z,44.36
2023-04-18T07:49:19.688Z,44.41
2023-04-18T07:50:19.635Z,44.42
2023-04-18T07:51:19.591Z,44.51
2023-04-18T07:52:19.520Z,44.72
2023-04-18T07:53:19.486Z,44.66
2023-04-18T07:54:19.415Z,44.90
2023-04-18T07:55:19.370Z,44.92
2023-04-18T07:56:19.309Z,44.89
2023-04-18T07:57:19.254Z,45.07
2023-04-18T07:58:19.204Z,45.10
2023-04-18T07:59:19.381Z,45.18
2023-04-18T08:00:19.095Z,45.29
2023-04-18T08:01:19.044Z,45.21
2023-04-18T08:02:19.053Z,45.49
2023-04-18T08:03:19.211Z,45.63
2023-04-18T08:04:19.024Z,45.73
2023-04-18T08:05:18.850Z,45.62
2023-04-18T08:06:18.785Z,45.72
2023-04-18T08:07:18.701Z,45.64
2023-04-18T08:08:18.649Z,45.83
2023-04-18T08:09:18.593Z,45.42
2023-04-18T08:10:18.549Z,45.94
2023-04-18T08:11:18.490Z,45.67
2023-04-18T08:12:18.425Z,45.67
2023-04-18T08:13:18.382Z,45.71
2023-04-18T08:14:18.325Z,45.63
2023-04-18T08:15:18.265Z,45.69
2023-04-18T08:16:18.237Z,45.83
2023-04-18T08:17:18.181Z,45.73
2023-04-18T08:18:18.133Z,46.48
2023-04-18T08:19:18.034Z,45.22
2023-04-18T08:20:18.058Z,41.10
2023-04-18T08:21:17.942Z,38.82
2023-04-18T08:22:17.887Z,38.74
2023-04-18T08:23:17.901Z,38.39
2023-04-18T08:24:17.781Z,39.02
2023-04-18T08:25:17.745Z,38.82
2023-04-18T08:26:17.687Z,39.30
2023-04-18T08:27:17.641Z,39.38
2023-04-18T08:28:17.564Z,40.04
2023-04-18T08:29:17.517Z,40.48
2023-04-18T08:30:17.469Z,40.88
2023-04-18T08:31:17.441Z,41.32
2023-04-18T08:32:17.368Z,41.56
2023-04-18T08:33:17.305Z,41.58
2023-04-18T08:34:17.262Z,41.56
2023-04-18T08:35:17.203Z,41.98
2023-04-18T08:36:17.149Z,41.92
2023-04-18T08:37:17.086Z,41.99
2023-04-18T08:38:17.031Z,41.97
2023-04-18T08:39:17.049Z,42.18
2023-04-18T08:40:16.929Z,42.67
2023-04-18T08:41:16.862Z,42.52
2023-04-18T08:42:16.794Z,43.22
2023-04-18T08:43:16.750Z,42.93
2023-04-18T08:44:16.686Z,43.30
2023-04-18T08:45:16.634Z,43.25
2023-04-18T08:46:16.611Z,43.12
2023-04-18T08:47:16.532Z,43.01
2023-04-18T08:48:16.470Z,43.28
2023-04-18T08:49:16.732Z,43.20
2023-04-18T08:50:16.348Z,43.12
2023-04-18T08:51:16.295Z,43.29
2023-04-18T08:52:16.246Z,43.29
2023-04-18T08:53:16.178Z,43.48
2023-04-18T08:54:16.120Z,43.32
2023-04-18T08:55:16.108Z,43.33
2023-04-18T08:56:16.009Z,44.01
2023-04-18T08:57:15.934Z,43.89
2023-04-18T08:58:15.876Z,44.33
2023-04-18T08:59:16.085Z,45.38
2023-04-18T09:00:15.769Z,44.36
2023-04-18T09:01:15.729Z,44.12
2023-04-18T09:02:15.706Z,43.97
2023-04-18T09:03:15.659Z,44.20
2023-04-18T09:04:15.553Z,44.21
2023-04-18T09:05:15.465Z,45.17
2023-04-18T09:06:15.401Z,44.88
2023-04-18T09:07:15.330Z,44.65
2023-04-18T09:08:15.280Z,44.60
2023-04-18T09:09:15.444Z,44.99
2023-04-18T09:10:15.152Z,45.04
2023-04-18T09:11:15.236Z,44.93
2023-04-18T09:12:15.026Z,45.09
2023-04-18T09:13:14.975Z,45.78
2023-04-18T09:14:15.036Z,46.08
2023-04-18T09:15:14.838Z,45.77
2023-04-18T09:16:15.403Z,45.43
2023-04-18T09:17:14.709Z,42.62
2023-04-18T09:18:14.653Z,39.50
2023-04-18T09:19:15.054Z,37.92
2023-04-18T09:20:14.579Z,36.53
2023-04-18T09:21:14.504Z,36.87
2023-04-18T09:22:14.447Z,36.03
2023-04-18T09:23:14.469Z,36.12
2023-04-18T09:24:14.638Z,37.70
2023-04-18T09:25:14.288Z,38.31
2023-04-18T09:26:14.251Z,38.71
2023-04-18T09:27:14.264Z,38.90
2023-04-18T09:28:14.180Z,39.04
2023-04-18T09:29:14.277Z,39.26
2023-04-18T09:30:14.132Z,39.48
2023-04-18T09:31:14.128Z,40.07
2023-04-18T09:32:14.040Z,40.18
2023-04-18T09:33:13.994Z,40.18
2023-04-18T09:34:14.130Z,40.41
2023-04-18T09:35:13.914Z,40.67
2023-04-18T09:36:13.861Z,40.77
2023-04-18T09:37:13.991Z,41.15
2023-04-18T09:38:13.767Z,41.25
2023-04-18T09:39:13.881Z,41.44
2023-04-18T09:40:13.672Z,41.45
2023-04-18T09:41:13.645Z,41.60
2023-04-18T09:42:13.580Z,41.64
2023-04-18T09:43:13.567Z,41.36
2023-04-18T09:44:15.264Z,42.08
2023-04-18T09:45:13.419Z,41.99
2023-04-18T09:46:13.438Z,42.11
2023-04-18T09:47:13.338Z,42.34
2023-04-18T09:48:13.270Z,42.21
2023-04-18T09:49:13.415Z,42.25
2023-04-18T09:50:13.162Z,42.53
2023-04-18T09:51:13.122Z,42.62
2023-04-18T09:52:13.044Z,42.65
2023-04-18T09:53:13.031Z,42.99
2023-04-18T09:54:13.235Z,42.89
2023-04-18T09:55:12.951Z,43.03
2023-04-18T09:56:13.028Z,43.18
2023-04-18T09:57:12.923Z,43.10
2023-04-18T09:58:12.864Z,43.19
2023-04-18T09:59:13.325Z,43.17
2023-04-18T10:00:12.838Z,43.36
2023-04-18T10:01:12.860Z,43.35
2023-04-18T10:02:12.846Z,43.54
2023-04-18T10:03:12.957Z,43.75
2023-04-18T10:04:13.005Z,43.92
2023-04-18T10:05:12.866Z,44.15
2023-04-18T10:06:12.831Z,44.23
2023-04-18T10:07:12.776Z,44.11
2023-04-18T10:08:12.810Z,44.15
2023-04-18T10:09:13.165Z,44.26
2023-04-18T10:10:12.852Z,44.83
2023-04-18T10:11:12.846Z,44.88
2023-04-18T10:12:12.871Z,44.79
2023-04-18T10:13:12.793Z,44.85
2023-04-18T10:14:13.130Z,45.01
2023-04-18T10:15:12.950Z,42.71
2023-04-18T10:16:12.845Z,41.49
2023-04-18T10:17:12.753Z,39.56
2023-04-18T10:18:12.741Z,39.95
2023-04-18T10:19:12.846Z,39.76
2023-04-18T10:20:12.601Z,37.19
2023-04-18T10:21:12.555Z,38.39
2023-04-18T10:22:12.503Z,40.07
2023-04-18T10:23:13.325Z,38.97
2023-04-18T10:24:12.576Z,39.07
2023-04-18T10:25:12.360Z,38.06
2023-04-18T10:26:12.319Z,35.38
2023-04-18T10:27:12.266Z,35.46
2023-04-18T10:28:12.205Z,36.81
2023-04-18T10:29:12.433Z,36.74
2023-04-18T10:30:12.124Z,37.23
2023-04-18T10:31:12.219Z,36.24
2023-04-18T10:32:12.821Z,37.06
2023-04-18T10:33:18.512Z,36.28
2023-04-18T10:34:12.965Z,36.16
2023-04-18T10:35:11.914Z,35.22
2023-04-18T10:36:11.860Z,37.53
2023-04-18T10:37:11.796Z,37.46
2023-04-18T10:38:11.751Z,37.70
2023-04-18T10:39:11.696Z,38.28
2023-04-18T10:40:11.622Z,38.34
2023-04-18T10:41:11.571Z,37.99
2023-04-18T10:42:11.541Z,38.26
2023-04-18T10:43:11.450Z,38.33
2023-04-18T10:44:11.452Z,38.49
2023-04-18T10:45:11.329Z,38.49
2023-04-18T10:46:23.942Z,38.70
2023-04-18T10:47:12.319Z,38.72
2023-04-18T10:48:11.193Z,38.93
2023-04-18T10:49:11.281Z,38.94
2023-04-18T10:50:11.053Z,39.13
2023-04-18T10:51:11.004Z,39.26
2023-04-18T10:52:12.326Z,39.57
2023-04-18T10:53:10.908Z,39.48
2023-04-18T10:54:10.971Z,39.51
2023-04-18T10:55:10.954Z,39.60
2023-04-18T10:56:10.944Z,39.80
2023-04-18T10:57:10.938Z,39.89
2023-04-18T10:58:10.951Z,40.87
2023-04-18T10:59:10.953Z,40.45
2023-04-18T11:00:10.958Z,40.48
2023-04-18T11:01:11.011Z,40.52
2023-04-18T11:02:12.849Z,40.85
2023-04-18T11:03:11.280Z,40.70
2023-04-18T11:04:11.122Z,40.56
2023-04-18T11:05:10.999Z,40.26
2023-04-18T11:06:11.019Z,40.33
2023-04-18T11:07:11.037Z,40.32
2023-04-18T11:08:11.009Z,40.35
2023-04-18T11:09:11.006Z,40.44
2023-04-18T11:10:10.970Z,40.40
2023-04-18T11:11:10.939Z,40.52
2023-04-18T11:12:10.917Z,40.57
2023-04-18T11:13:10.866Z,40.68
2023-04-18T11:14:10.845Z,40.71
2023-04-18T11:15:10.763Z,40.74
2023-04-18T11:16:10.761Z,40.84
2023-04-18T11:17:11.341Z,40.88
2023-04-18T11:18:10.672Z,40.93
2023-04-18T11:19:10.586Z,41.03
2023-04-18T11:20:10.536Z,41.06
2023-04-18T11:21:10.488Z,41.14
2023-04-18T11:22:10.451Z,41.15
2023-04-18T11:23:10.400Z,41.22
2023-04-18T11:24:10.367Z,41.21
2023-04-18T11:25:10.334Z,41.26
2023-04-18T11:26:10.295Z,41.31
2023-04-18T11:27:10.256Z,41.38
2023-04-18T11:28:10.244Z,41.34
2023-04-18T11:29:10.194Z,41.42
2023-04-18T11:30:10.182Z,41.40
2023-04-18T11:31:10.144Z,41.43
2023-04-18T11:32:10.196Z,41.52
2023-04-18T11:33:10.113Z,41.43
2023-04-18T11:34:10.086Z,41.49
2023-04-18T11:35:10.104Z,41.50
2023-04-18T11:36:10.037Z,41.50
2023-04-18T11:37:10.012Z,41.39
2023-04-18T11:38:09.981Z,41.41
2023-04-18T11:39:09.959Z,41.54
2023-04-18T11:40:09.932Z,41.50
2023-04-18T11:41:09.903Z,41.45
2023-04-18T11:42:09.887Z,41.55
2023-04-18T11:43:09.881Z,41.48
2023-04-18T11:44:09.875Z,41.49
2023-04-18T11:45:09.851Z,41.57
2023-04-18T11:46:09.879Z,41.53
2023-04-18T11:47:09.829Z,41.52
2023-04-18T11:48:09.813Z,41.55
2023-04-18T11:49:09.772Z,41.54
2023-04-18T11:50:09.766Z,41.49
2023-04-18T11:51:09.760Z,41.37
2023-04-18T11:52:09.716Z,41.36
2023-04-18T11:53:09.712Z,41.31
2023-04-18T11:54:09.670Z,41.35
2023-04-18T11:55:09.634Z,41.26
2023-04-18T11:56:09.615Z,41.21
2023-04-18T11:57:09.588Z,41.17
2023-04-18T11:58:09.546Z,41.26
2023-04-18T11:59:09.520Z,41.27
2023-04-18T12:00:09.519Z,41.14
2023-04-18T12:01:09.463Z,41.14
2023-04-18T12:02:16.406Z,41.19
2023-04-18T12:03:13.399Z,41.11
2023-04-18T12:04:09.549Z,41.06
2023-04-18T12:05:09.592Z,41.05
2023-04-18T12:06:09.326Z,41.01
2023-04-18T12:07:09.312Z,40.90
2023-04-18T12:08:09.114Z,40.88
2023-04-18T12:09:09.059Z,40.89
2023-04-18T12:10:09.002Z,40.90
2023-04-18T12:11:08.971Z,40.87
2023-04-18T12:12:08.942Z,40.79
2023-04-18T12:13:08.974Z,40.77
2023-04-18T12:14:08.827Z,40.77
2023-04-18T12:15:08.775Z,40.61
2023-04-18T12:16:08.721Z,40.60
2023-04-18T12:17:08.655Z,40.56
2023-04-18T12:18:08.838Z,40.59
2023-04-18T12:19:08.546Z,40.51
2023-04-18T12:20:08.488Z,40.50
2023-04-18T12:21:08.447Z,40.47
2023-04-18T12:22:08.398Z,40.42
2023-04-18T12:23:08.331Z,40.43
2023-04-18T12:24:08.284Z,40.55
2023-04-18T12:25:08.233Z,40.42
2023-04-18T12:26:08.190Z,40.48
2023-04-18T12:27:08.119Z,40.37
2023-04-18T12:28:08.045Z,40.45
2023-04-18T12:29:07.986Z,40.43
2023-04-18T12:30:07.931Z,40.27
2023-04-18T12:31:07.943Z,40.17
2023-04-18T12:32:07.836Z,40.17
2023-04-18T12:33:07.766Z,40.22
2023-04-18T12:34:07.705Z,40.20
2023-04-18T12:35:07.675Z,40.09
2023-04-18T12:36:07.575Z,40.02
2023-04-18T12:37:07.517Z,40.04
2023-04-18T12:38:07.452Z,40.01
2023-04-18T12:39:07.409Z,39.98
2023-04-18T12:40:07.341Z,40.07
2023-04-18T12:41:08.365Z,39.98
2023-04-18T12:42:07.224Z,39.93
2023-04-18T12:43:07.159Z,39.93
2023-04-18T12:44:07.094Z,39.84
2023-04-18T12:45:07.029Z,39.93
2023-04-18T12:46:06.976Z,39.82
2023-04-18T12:47:06.978Z,39.76
2023-04-18T12:48:06.918Z,39.73
2023-04-18T12:49:06.793Z,39.73
2023-04-18T12:50:06.739Z,39.69
2023-04-18T12:51:06.668Z,39.71
2023-04-18T12:52:06.599Z,39.64